createdAt,value
2023-01-17T00:42:03.596Z,3.50
2023-01-17T00:44:55.114Z,4.04
2023-01-17T00:47:41.480Z,4.03
2023-01-17T00:50:50.390Z,3.93
2023-01-17T00:54:30.452Z,3.84
2023-01-17T00:57:21.762Z,3.75
2023-01-17T01:00:10.191Z,3.67
2023-01-17T01:02:59.715Z,3.66
2023-01-17T01:05:58.582Z,3.63
2023-01-17T01:08:58.607Z,3.60
2023-01-17T01:11:51.279Z,3.56
2023-01-17T01:15:00.542Z,3.56
2023-01-17T01:18:06.699Z,3.55
2023-01-17T01:21:23.124Z,3.56
2023-01-17T01:24:11.574Z,3.53
2023-01-17T01:27:07.564Z,3.53
2023-01-17T01:30:15.957Z,3.54
2023-01-17T01:33:18.439Z,3.58
2023-01-17T01:36:05.723Z,3.57
2023-01-17T01:38:35.523Z,3.57
2023-01-17T01:41:08.423Z,3.59
2023-01-17T01:43:48.691Z,3.58
2023-01-17T01:47:05.725Z,3.56
2023-01-17T01:49:48.832Z,3.57
2023-01-17T01:52:44.041Z,3.59
2023-01-17T01:55:28.776Z,3.56
2023-01-17T01:58:22.605Z,3.59
2023-01-17T02:01:06.468Z,3.62
2023-01-17T02:03:51.241Z,3.58
2023-01-17T02:06:25.130Z,3.59
2023-01-17T02:09:12.104Z,3.60
2023-01-17T02:11:49.587Z,3.59
2023-01-17T02:14:37.125Z,3.55
2023-01-17T02:17:46.457Z,3.55
2023-01-17T02:20:41.265Z,3.56
2023-01-17T02:23:20.015Z,3.55
2023-01-17T02:26:54.791Z,3.52
2023-01-17T02:30:16.316Z,3.54
2023-01-17T02:33:06.608Z,3.54
2023-01-17T02:36:11.073Z,3.48
2023-01-17T02:39:09.677Z,3.46
2023-01-17T02:41:52.084Z,3.47
2023-01-17T02:44:48.834Z,3.46
2023-01-17T02:47:21.507Z,3.46
2023-01-17T02:49:59.718Z,3.48
2023-01-17T02:53:22.478Z,3.50
2023-01-17T02:56:25.118Z,3.53
2023-01-17T02:59:35.601Z,3.47
2023-01-17T03:02:38.503Z,3.44
2023-01-17T03:06:08.129Z,3.46
2023-01-17T03:08:49.213Z,3.48
2023-01-17T03:11:16.968Z,3.45
2023-01-17T03:13:57.365Z,3.45
2023-01-17T03:16:37.579Z,3.48
2023-01-17T03:19:09.913Z,3.49
2023-01-17T03:21:51.421Z,3.48
2023-01-17T03:24:22.301Z,3.45
2023-01-17T03:26:52.031Z,3.46
2023-01-17T03:29:25.100Z,3.50
2023-01-17T03:32:17.195Z,3.53
2023-01-17T03:35:00.740Z,3.52
2023-01-17T03:37:36.759Z,3.50
2023-01-17T03:40:55.375Z,3.51
2023-01-17T03:43:41.567Z,3.54
2023-01-17T03:46:19.735Z,3.54
2023-01-17T03:48:53.081Z,3.51
2023-01-17T03:51:43.466Z,3.51
2023-01-17T03:54:10.688Z,3.55
2023-01-17T03:56:40.399Z,3.57
2023-01-17T03:59:14.423Z,3.62
2023-01-17T04:02:15.506Z,3.60
2023-01-17T04:05:02.803Z,3.58
2023-01-17T04:07:41.436Z,3.59
2023-01-17T04:10:12.981Z,3.63
2023-01-17T10:16:53.241Z,5.07
2023-01-17T10:19:43.806Z,5.69
2023-01-17T10:22:58.861Z,5.67
2023-01-17T10:25:57.261Z,5.63
2023-01-17T10:28:33.532Z,5.57
2023-01-17T10:31:21.032Z,5.50
2023-01-17T10:33:53.183Z,5.43
2023-01-17T10:36:23.832Z,5.39
2023-01-17T10:38:58.284Z,5.39
2023-01-17T10:41:35.230Z,5.37
2023-01-17T10:44:48.137Z,5.36
2023-01-17T10:47:22.360Z,5.30
2023-01-17T10:49:53.981Z,5.25
2023-01-17T10:52:45.763Z,5.22
2023-01-17T10:55:40.504Z,5.21
2023-01-17T10:58:15.633Z,5.22
2023-01-17T11:00:52.258Z,5.21
2023-01-17T11:03:24.091Z,5.19
2023-01-17T11:06:15.009Z,5.16
2023-01-17T11:08:59.505Z,5.12
2023-01-17T11:11:31.155Z,5.13
2023-01-17T11:14:07.917Z,5.09
2023-01-17T11:16:55.236Z,5.04
2023-01-17T11:19:36.062Z,5.05
2023-01-17T11:22:05.206Z,5.06
2023-01-17T11:24:36.512Z,5.06
2023-01-17T11:27:44.788Z,5.04
2023-01-17T11:30:21.519Z,5.05
2023-01-17T11:33:04.383Z,5.06
2023-01-17T11:35:32.516Z,5.10
2023-01-17T11:38:40.022Z,5.07
2023-01-17T11:41:20.575Z,5.00
2023-01-17T11:43:55.413Z,4.92
2023-01-17T11:46:25.583Z,4.85
2023-01-17T11:49:00.994Z,4.78
2023-01-17T11:51:33.970Z,4.70
2023-01-17T11:54:28.992Z,4.60
2023-01-17T11:57:02.671Z,4.51
2023-01-17T11:59:33.629Z,4.47
2023-01-17T12:02:32.099Z,4.46
2023-01-17T16:13:26.113Z,4.47
2023-01-17T16:15:53.275Z,4.97
2023-01-17T16:18:29.421Z,5.00
2023-01-17T16:21:00.856Z,4.97
2023-01-17T16:23:28.646Z,4.94
2023-01-17T16:25:56.676Z,4.91
2023-01-17T16:28:27.443Z,4.86
2023-01-17T16:30:57.464Z,4.80
2023-01-17T16:33:24.597Z,4.74
2023-01-17T16:35:53.464Z,4.72
2023-01-17T16:38:20.758Z,4.72
2023-01-17T16:40:48.322Z,4.74
2023-01-17T16:43:17.303Z,4.77
2023-01-17T16:45:46.931Z,4.76
2023-01-17T16:48:14.374Z,4.74
2023-01-17T16:50:48.445Z,4.72
2023-01-17T16:53:16.560Z,4.73
2023-01-17T16:55:46.583Z,4.76
2023-01-17T16:58:15.575Z,4.78
2023-01-17T17:00:43.129Z,4.77
2023-01-17T17:03:20.731Z,4.72
2023-01-17T17:05:58.423Z,4.72
2023-01-17T17:08:25.897Z,4.73
2023-01-17T17:10:53.236Z,4.74
2023-01-17T17:13:20.592Z,4.74
2023-01-17T17:15:48.176Z,4.73
2023-01-17T17:18:16.757Z,4.69
2023-01-17T17:20:44.096Z,4.66
2023-01-17T17:23:11.344Z,4.65
2023-01-17T17:25:39.001Z,4.69
2023-01-17T17:28:08.921Z,4.72
2023-01-17T17:30:36.583Z,4.72
2023-01-17T17:33:06.607Z,4.70
2023-01-17T17:35:42.967Z,4.72
2023-01-17T17:38:12.473Z,4.78
2023-01-17T17:40:39.623Z,4.85
2023-01-17T17:43:06.993Z,4.91
2023-01-17T17:45:34.127Z,4.94
2023-01-17T17:48:01.289Z,4.96
2023-01-17T17:50:28.633Z,4.97
2023-01-17T17:52:55.685Z,4.99
2023-01-17T17:55:23.351Z,5.03
2023-01-17T17:57:53.931Z,5.08
2023-01-17T18:00:23.379Z,5.15
2023-01-17T18:02:50.632Z,5.19
2023-01-17T18:05:17.887Z,5.20
2023-01-17T18:07:45.144Z,5.21
2023-01-17T18:10:12.596Z,5.22
2023-01-17T18:12:39.849Z,5.26
2023-01-17T18:15:07.929Z,5.32
2023-01-17T18:17:35.517Z,5.35
2023-01-17T18:20:02.570Z,5.39
2023-01-17T18:22:29.819Z,5.41
2023-01-17T18:25:00.129Z,5.43
2023-01-17T18:27:27.599Z,5.47
2023-01-17T18:29:58.702Z,5.51
2023-01-17T18:32:26.287Z,5.53
2023-01-17T18:34:53.768Z,5.52
2023-01-17T18:37:22.804Z,5.51
2023-01-17T18:39:52.504Z,5.49
2023-01-17T18:42:21.769Z,5.50
2023-01-17T18:44:49.704Z,5.52
2023-01-17T18:47:16.742Z,5.57
2023-01-17T18:49:44.079Z,5.60
2023-01-17T18:52:12.280Z,5.60
2023-01-17T18:54:40.776Z,5.59
2023-01-17T18:57:08.139Z,5.61
2023-01-17T18:59:35.546Z,5.64
2023-01-17T19:02:02.902Z,5.67
2023-01-17T19:04:34.282Z,5.70
2023-01-17T19:07:01.741Z,5.73
2023-01-17T19:09:28.788Z,5.75
2023-01-17T19:11:57.270Z,5.75
2023-01-17T19:14:25.661Z,5.78
2023-01-17T19:16:54.069Z,5.82
2023-01-17T19:19:21.606Z,5.83
2023-01-17T19:21:51.720Z,5.83
2023-01-17T19:24:18.978Z,5.82
2023-01-17T19:26:51.452Z,5.85
2023-01-17T19:29:31.705Z,5.89
2023-01-17T19:31:59.184Z,5.95
2023-01-17T19:34:26.556Z,5.97
2023-01-17T19:36:56.991Z,5.96
2023-01-17T19:39:27.270Z,5.93
2023-01-17T19:41:55.242Z,5.95
2023-01-17T19:44:27.723Z,5.96
2023-01-17T19:46:56.709Z,5.99
